Cambridge, MA (02138)

10:17 PM EST on December 09, 2016 (GMT -0500)
Huron Village | | Change Station

Elev 62 ft 42.38 °N, 71.13 °W | Updated 1 minute ago

Partly Cloudy
Partly Cloudy
26.3 °F
Feels Like 26 °F
N
0.8
Wind Variable Wind from WNW
Gusts 4.7 mph

Today
High -- | Low -- °F
--% Chance of Precip.
Yesterday
High -- | Low -- °F
Precip. -- in
Pressure 30.16 in
Visibility 10.0 miles
Clouds Few 4000 ft
Windchill 26 °F
Dew Point 2 °F
Humidity 34%
Rainfall 0.00 in
Snow Depth Not available.
7:02 AM 4:11 PM
Waxing Gibbous, 79% visible
METAR KBOS 100154Z 29014G21KT 10SM FEW040 M02/M14 A3016 RMK AO2 PK WND 28027/0104 SLP211 T10221139
Pressure 30.16 in
Visibility 10.0 miles
Clouds Few 4000 ft
Windchill 26 °F
Dew Point 2 °F
Humidity 34%
Rainfall 0.00 in
Snow Depth Not available.
7:02 AM 4:11 PM
Waxing Gibbous, 79% visible
METAR KBOS 100154Z 29014G21KT 10SM FEW040 M02/M14 A3016 RMK AO2 PK WND 28027/0104 SLP211 T10221139

10-Day Weather Forecast

Almanac

Astronomy

Dec. 09, 2016 Rise Set
Actual Time
Civil Twilight
Nautical Twilight
Astronomical Twilight
Moon
Length of Visible Light
Length of Day
Tomorrow will be .
, % of the Moon is Illuminated

Today's Extremes

State Highs State Lows

Community

WunderPhotos

Upload Photos

1,956,532 photos uploaded!

WunderBlog® & News

Nearby

Air Quality

  Air Quality AQ Index Pollutant
Not available.

Snow Depth

Station Depth Elevation

Earthquake Activity

City Distance Mag. Time & Date
Minimum magnitude displayed is 2.5.

Coastal Water Temperatures

Place Temperature

Stations

Nearby Weather Stations

Station Location Temp. Windchill Dew Point Humidity Wind Precip. Elev Updated Type
                   

Watches & Warnings

There are currently no watches in effect.